sensor_id;sensor_type;location;lat;lon;timestamp;pressure;altitude;pressure_sealevel;temperature;humidity
16194;BME280;8204;53.582;10.080;2022-07-06T00:01:26;101934.44;;;17.63;100.00
16194;BME280;8204;53.582;10.080;2022-07-06T00:03:52;101936.09;;;17.64;100.00
16194;BME280;8204;53.582;10.080;2022-07-06T00:06:19;101929.16;;;17.63;100.00
16194;BME280;8204;53.582;10.080;2022-07-06T00:08:46;101934.44;;;17.63;100.00
16194;BME280;8204;53.582;10.080;2022-07-06T00:11:14;101941.03;;;17.67;100.00
16194;BME280;8204;53.582;10.080;2022-07-06T00:13:41;101936.09;;;17.64;100.00
16194;BME280;8204;53.582;10.080;2022-07-06T00:16:08;101940.41;;;17.65;100.00
16194;BME280;8204;53.582;10.080;2022-07-06T00:18:34;101940.22;;;17.66;100.00
16194;BME280;8204;53.582;10.080;2022-07-06T00:21:01;101943.69;;;17.67;100.00
16194;BME280;8204;53.582;10.080;2022-07-06T00:23:27;101943.00;;;17.73;100.00
16194;BME280;8204;53.582;10.080;2022-07-06T00:25:54;101946.66;;;17.72;100.00
16194;BME280;8204;53.582;10.080;2022-07-06T00:28:22;101943.66;;;17.75;100.00
16194;BME280;8204;53.582;10.080;2022-07-06T00:30:48;101940.38;;;17.73;100.00
16194;BME280;8204;53.582;10.080;2022-07-06T00:33:15;101938.84;;;17.70;100.00
16194;BME280;8204;53.582;10.080;2022-07-06T00:35:41;101936.69;;;17.74;100.00
16194;BME280;8204;53.582;10.080;2022-07-06T00:38:08;101936.38;;;17.69;100.00
16194;BME280;8204;53.582;10.080;2022-07-06T00:40:34;101939.53;;;17.72;100.00
16194;BME280;8204;53.582;10.080;2022-07-06T00:43:01;101938.72;;;17.72;100.00
16194;BME280;8204;53.582;10.080;2022-07-06T00:45:29;101940.38;;;17.73;100.00
16194;BME280;8204;53.582;10.080;2022-07-06T00:47:55;101944.25;;;17.62;100.00
16194;BME280;8204;53.582;10.080;2022-07-06T00:50:22;101937.75;;;17.65;100.00
16194;BME280;8204;53.582;10.080;2022-07-06T00:52:50;101935.28;;;17.63;100.00
16194;BME280;8204;53.582;10.080;2022-07-06T00:55:19;101936.38;;;17.69;100.00
16194;BME280;8204;53.582;10.080;2022-07-06T00:57:46;101935.91;;;17.65;100.00
16194;BME280;8204;53.582;10.080;2022-07-06T01:00:15;101928.09;;;17.72;100.00
16194;BME280;8204;53.582;10.080;2022-07-06T01:02:44;101936.88;;;17.72;100.00
16194;BME280;8204;53.582;10.080;2022-07-06T01:05:13;101936.06;;;17.72;100.00
16194;BME280;8204;53.582;10.080;2022-07-06T01:07:41;101933.09;;;17.67;100.00
16194;BME280;8204;53.582;10.080;2022-07-06T01:10:09;101941.41;;;17.64;100.00
16194;BME280;8204;53.582;10.080;2022-07-06T01:12:37;101939.09;;;17.61;100.00
16194;BME280;8204;53.582;10.080;2022-07-06T01:15:05;101939.94;;;17.61;100.00
16194;BME280;8204;53.582;10.080;2022-07-06T01:17:33;101925.50;;;17.64;100.00
16194;BME280;8204;53.582;10.080;2022-07-06T01:20:07;101927.00;;;17.58;100.00
16194;BME280;8204;53.582;10.080;2022-07-06T01:22:34;101931.31;;;17.59;100.00
16194;BME280;8204;53.582;10.080;2022-07-06T01:25:00;101923.84;;;17.63;100.00
16194;BME280;8204;53.582;10.080;2022-07-06T01:27:27;101930.81;;;17.64;100.00
16194;BME280;8204;53.582;10.080;2022-07-06T01:29:54;101920.72;;;17.59;100.00
16194;BME280;8204;53.582;10.080;2022-07-06T01:32:20;101930.19;;;17.54;100.00
16194;BME280;8204;53.582;10.080;2022-07-06T01:34:47;101930.88;;;17.48;100.00
16194;BME280;8204;53.582;10.080;2022-07-06T01:37:14;101921.63;;;17.44;100.00
16194;BME280;8204;53.582;10.080;2022-07-06T01:39:41;101928.34;;;17.32;100.00
16194;BME280;8204;53.582;10.080;2022-07-06T01:42:07;101927.66;;;17.30;100.00
16194;BME280;8204;53.582;10.080;2022-07-06T01:44:34;101920.91;;;17.28;100.00
16194;BME280;8204;53.582;10.080;2022-07-06T01:47:00;101929.66;;;17.28;100.00
16194;BME280;8204;53.582;10.080;2022-07-06T01:49:26;101923.72;;;17.18;100.00
16194;BME280;8204;53.582;10.080;2022-07-06T01:51:53;101918.06;;;17.21;100.00
16194;BME280;8204;53.582;10.080;2022-07-06T01:54:21;101917.28;;;17.13;100.00
16194;BME280;8204;53.582;10.080;2022-07-06T01:56:47;101917.63;;;17.18;100.00
16194;BME280;8204;53.582;10.080;2022-07-06T01:59:14;101913.81;;;17.12;100.00
16194;BME280;8204;53.582;10.080;2022-07-06T02:01:40;101913.34;;;17.09;100.00
16194;BME280;8204;53.582;10.080;2022-07-06T02:04:07;101922.75;;;17.11;100.00
16194;BME280;8204;53.582;10.080;2022-07-06T02:06:33;101925.72;;;17.16;100.00
16194;BME280;8204;53.582;10.080;2022-07-06T02:08:59;101921.06;;;17.18;100.00
16194;BME280;8204;53.582;10.080;2022-07-06T02:11:27;101928.06;;;17.11;100.00
16194;BME280;8204;53.582;10.080;2022-07-06T02:13:54;101922.91;;;17.18;100.00
16194;BME280;8204;53.582;10.080;2022-07-06T02:16:21;101917.47;;;17.11;100.00
16194;BME280;8204;53.582;10.080;2022-07-06T02:18:47;101926.06;;;17.13;100.00
16194;BME280;8204;53.582;10.080;2022-07-06T02:21:14;101924.91;;;17.16;100.00
16194;BME280;8204;53.582;10.080;2022-07-06T02:23:40;101930.22;;;17.08;100.00
16194;BME280;8204;53.582;10.080;2022-07-06T02:26:07;101930.03;;;17.09;100.00
16194;BME280;8204;53.582;10.080;2022-07-06T02:28:35;101935.69;;;17.06;100.00
16194;BME280;8204;53.582;10.080;2022-07-06T02:31:01;101933.06;;;17.06;100.00
16194;BME280;8204;53.582;10.080;2022-07-06T02:33:27;101931.41;;;17.05;100.00
16194;BME280;8204;53.582;10.080;2022-07-06T02:35:54;101928.44;;;17.00;100.00
16194;BME280;8204;53.582;10.080;2022-07-06T02:38:21;101932.25;;;16.98;100.00
16194;BME280;8204;53.582;10.080;2022-07-06T02:40:47;101925.81;;;16.92;100.00
16194;BME280;8204;53.582;10.080;2022-07-06T02:43:14;101917.38;;;16.89;100.00
16194;BME280;8204;53.582;10.080;2022-07-06T02:45:43;101924.19;;;16.83;100.00
16194;BME280;8204;53.582;10.080;2022-07-06T02:48:09;101913.44;;;16.85;100.00
16194;BME280;8204;53.582;10.080;2022-07-06T02:50:35;101910.63;;;16.86;100.00
16194;BME280;8204;53.582;10.080;2022-07-06T02:53:02;101916.91;;;16.85;100.00
16194;BME280;8204;53.582;10.080;2022-07-06T02:55:28;101912.28;;;16.80;100.00
16194;BME280;8204;53.582;10.080;2022-07-06T02:57:55;101913.09;;;16.80;100.00
16194;BME280;8204;53.582;10.080;2022-07-06T03:00:21;101899.03;;;16.87;100.00
16194;BME280;8204;53.582;10.080;2022-07-06T03:02:49;101904.53;;;16.78;100.00
16194;BME280;8204;53.582;10.080;2022-07-06T03:05:16;101902.03;;;16.77;100.00
16194;BME280;8204;53.582;10.080;2022-07-06T03:07:42;101899.56;;;16.75;100.00
16194;BME280;8204;53.582;10.080;2022-07-06T03:10:08;101897.41;;;16.79;100.00
16194;BME280;8204;53.582;10.080;2022-07-06T03:12:35;101909.66;;;16.72;100.00
16194;BME280;8204;53.582;10.080;2022-07-06T03:15:02;101910.81;;;16.69;100.00
16194;BME280;8204;53.582;10.080;2022-07-06T03:17:28;101921.09;;;16.72;100.00
16194;BME280;8204;53.582;10.080;2022-07-06T03:19:56;101919.63;;;16.62;100.00
16194;BME280;8204;53.582;10.080;2022-07-06T03:22:22;101927.56;;;16.62;100.00
16194;BME280;8204;53.582;10.080;2022-07-06T03:24:49;101927.88;;;16.67;100.00
16194;BME280;8204;53.582;10.080;2022-07-06T03:27:15;101923.41;;;16.67;100.00
16194;BME280;8204;53.582;10.080;2022-07-06T03:29:42;101927.38;;;16.71;100.00
16194;BME280;8204;53.582;10.080;2022-07-06T03:32:08;101926.84;;;16.76;100.00
16194;BME280;8204;53.582;10.080;2022-07-06T03:34:35;101917.59;;;16.80;100.00
16194;BME280;8204;53.582;10.080;2022-07-06T03:37:03;101922.88;;;16.80;100.00
16194;BME280;8204;53.582;10.080;2022-07-06T03:39:29;101917.88;;;16.84;100.00
16194;BME280;8204;53.582;10.080;2022-07-06T03:41:56;101921.88;;;16.81;100.00
16194;BME280;8204;53.582;10.080;2022-07-06T03:44:22;101918.25;;;16.82;100.00
16194;BME280;8204;53.582;10.080;2022-07-06T03:46:48;101917.22;;;16.82;100.00
16194;BME280;8204;53.582;10.080;2022-07-06T03:49:16;101921.88;;;16.81;100.00
16194;BME280;8204;53.582;10.080;2022-07-06T03:51:42;101920.22;;;16.80;100.00
16194;BME280;8204;53.582;10.080;2022-07-06T03:54:10;101909.66;;;16.80;100.00
16194;BME280;8204;53.582;10.080;2022-07-06T03:56:36;101914.13;;;16.71;100.00
16194;BME280;8204;53.582;10.080;2022-07-06T03:59:04;101923.06;;;16.78;100.00
16194;BME280;8204;53.582;10.080;2022-07-06T04:01:30;101915.13;;;16.78;100.00
16194;BME280;8204;53.582;10.080;2022-07-06T04:03:57;101907.81;;;16.80;100.00
16194;BME280;8204;53.582;10.080;2022-07-06T04:06:23;101909.63;;;16.87;100.00
16194;BME280;8204;53.582;10.080;2022-07-06T04:08:50;101927.50;;;16.85;100.00
16194;BME280;8204;53.582;10.080;2022-07-06T04:11:18;101921.53;;;16.83;100.00
16194;BME280;8204;53.582;10.080;2022-07-06T04:13:44;101928.19;;;16.72;100.00
16194;BME280;8204;53.582;10.080;2022-07-06T04:16:10;101929.53;;;16.68;100.00
16194;BME280;8204;53.582;10.080;2022-07-06T04:18:37;101916.13;;;16.61;100.00
16194;BME280;8204;53.582;10.080;2022-07-06T04:21:03;101918.16;;;16.51;100.00
16194;BME280;8204;53.582;10.080;2022-07-06T04:23:30;101901.78;;;16.48;100.00
16194;BME280;8204;53.582;10.080;2022-07-06T04:25:57;101892.50;;;16.52;100.00
16194;BME280;8204;53.582;10.080;2022-07-06T04:28:25;101883.25;;;16.56;100.00
16194;BME280;8204;53.582;10.080;2022-07-06T04:30:51;101883.88;;;16.58;100.00
16194;BME280;8204;53.582;10.080;2022-07-06T04:33:18;101885.22;;;16.62;100.00
16194;BME280;8204;53.582;10.080;2022-07-06T04:35:44;101885.03;;;16.63;100.00
16194;BME280;8204;53.582;10.080;2022-07-06T04:38:11;101888.00;;;16.60;100.00
16194;BME280;8204;53.582;10.080;2022-07-06T04:40:37;101898.94;;;16.65;100.00
16194;BME280;8204;53.582;10.080;2022-07-06T04:43:04;101914.81;;;16.65;100.00
16194;BME280;8204;53.582;10.080;2022-07-06T04:45:32;101906.88;;;16.65;100.00
16194;BME280;8204;53.582;10.080;2022-07-06T04:47:59;101911.63;;;16.70;100.00
16194;BME280;8204;53.582;10.080;2022-07-06T04:50:25;101903.69;;;16.78;100.00
16194;BME280;8204;53.582;10.080;2022-07-06T04:52:52;101914.44;;;16.84;100.00
16194;BME280;8204;53.582;10.080;2022-07-06T04:55:18;101912.59;;;16.84;100.00
16194;BME280;8204;53.582;10.080;2022-07-06T04:57:45;101917.72;;;16.86;100.00
16194;BME280;8204;53.582;10.080;2022-07-06T05:00:12;101899.34;;;16.84;100.00
16194;BME280;8204;53.582;10.080;2022-07-06T05:02:40;101903.34;;;16.88;100.00
16194;BME280;8204;53.582;10.080;2022-07-06T05:05:07;101914.91;;;16.87;100.00
16194;BME280;8204;53.582;10.080;2022-07-06T05:07:34;101912.91;;;16.89;100.00
16194;BME280;8204;53.582;10.080;2022-07-06T05:10:05;101911.59;;;16.93;100.00
16194;BME280;8204;53.582;10.080;2022-07-06T05:12:32;101909.25;;;16.90;100.00
16194;BME280;8204;53.582;10.080;2022-07-06T05:14:58;101912.69;;;16.99;100.00
16194;BME280;8204;53.582;10.080;2022-07-06T05:17:25;101925.78;;;17.00;100.00
16194;BME280;8204;53.582;10.080;2022-07-06T05:19:53;101925.78;;;17.00;100.00
16194;BME280;8204;53.582;10.080;2022-07-06T05:22:19;101920.03;;;16.89;100.00
16194;BME280;8204;53.582;10.080;2022-07-06T05:24:46;101923.50;;;16.89;100.00
16194;BME280;8204;53.582;10.080;2022-07-06T05:27:12;101914.56;;;16.90;100.00
16194;BME280;8204;53.582;10.080;2022-07-06T05:29:39;101920.16;;;16.95;100.00
16194;BME280;8204;53.582;10.080;2022-07-06T05:32:06;101909.25;;;16.90;100.00
16194;BME280;8204;53.582;10.080;2022-07-06T05:34:32;101907.59;;;16.97;100.00
16194;BME280;8204;53.582;10.080;2022-07-06T05:37:00;101917.19;;;16.98;100.00
16194;BME280;8204;53.582;10.080;2022-07-06T05:39:27;101917.88;;;16.92;100.00
16194;BME280;8204;53.582;10.080;2022-07-06T05:41:53;101923.97;;;16.93;100.00
16194;BME280;8204;53.582;10.080;2022-07-06T05:44:19;101923.97;;;16.93;100.00
16194;BME280;8204;53.582;10.080;2022-07-06T05:46:46;101923.16;;;16.92;100.00
16194;BME280;8204;53.582;10.080;2022-07-06T05:49:12;101923.97;;;17.01;100.00
16194;BME280;8204;53.582;10.080;2022-07-06T05:51:56;101924.44;;;17.04;100.00
16194;BME280;8204;53.582;10.080;2022-07-06T05:54:24;101922.78;;;17.03;100.00
16194;BME280;8204;53.582;10.080;2022-07-06T05:56:51;101921.78;;;17.04;100.00
16194;BME280;8204;53.582;10.080;2022-07-06T05:59:17;101925.44;;;17.03;100.00
16194;BME280;8204;53.582;10.080;2022-07-06T06:01:43;101926.75;;;17.07;100.00
16194;BME280;8204;53.582;10.080;2022-07-06T06:04:10;101923.25;;;17.15;100.00
16194;BME280;8204;53.582;10.080;2022-07-06T06:06:36;101925.72;;;17.16;100.00
16194;BME280;8204;53.582;10.080;2022-07-06T06:09:03;101902.88;;;17.15;100.00
16194;BME280;8204;53.582;10.080;2022-07-06T06:11:31;101911.97;;;17.13;100.00
16194;BME280;8204;53.582;10.080;2022-07-06T06:13:57;101887.34;;;17.12;100.00
16194;BME280;8204;53.582;10.080;2022-07-06T06:16:24;101886.69;;;17.02;100.00
16194;BME280;8204;53.582;10.080;2022-07-06T06:18:50;101883.41;;;17.00;100.00
16194;BME280;8204;53.582;10.080;2022-07-06T06:21:16;101884.06;;;17.02;100.00
16194;BME280;8204;53.582;10.080;2022-07-06T06:23:43;101870.13;;;17.08;100.00
16194;BME280;8204;53.582;10.080;2022-07-06T06:26:09;101881.75;;;16.99;100.00
16194;BME280;8204;53.582;10.080;2022-07-06T06:28:37;101880.13;;;16.98;100.00
16194;BME280;8204;53.582;10.080;2022-07-06T06:31:04;101883.16;;;16.87;100.00
16194;BME280;8204;53.582;10.080;2022-07-06T06:33:30;101892.56;;;16.90;100.00
16194;BME280;8204;53.582;10.080;2022-07-06T06:35:57;101907.09;;;16.94;100.00
16194;BME280;8204;53.582;10.080;2022-07-06T06:38:23;101917.91;;;16.77;100.00
16194;BME280;8204;53.582;10.080;2022-07-06T06:40:51;101907.31;;;16.84;100.00
16194;BME280;8204;53.582;10.080;2022-07-06T06:43:18;101905.97;;;16.88;100.00
16194;BME280;8204;53.582;10.080;2022-07-06T06:45:46;101910.09;;;16.91;100.00
16194;BME280;8204;53.582;10.080;2022-07-06T06:48:12;101921.19;;;16.94;100.00
16194;BME280;8204;53.582;10.080;2022-07-06T06:50:39;101922.66;;;16.97;100.00
16194;BME280;8204;53.582;10.080;2022-07-06T06:53:05;101919.84;;;16.98;100.00
16194;BME280;8204;53.582;10.080;2022-07-06T06:55:32;101932.06;;;17.07;100.00
16194;BME280;8204;53.582;10.080;2022-07-06T06:57:58;101936.66;;;17.13;100.00
16194;BME280;8204;53.582;10.080;2022-07-06T07:00:25;101943.09;;;17.27;100.00
16194;BME280;8204;53.582;10.080;2022-07-06T07:02:53;101956.13;;;17.36;100.00
16194;BME280;8204;53.582;10.080;2022-07-06T07:05:19;101949.13;;;17.43;100.00
16194;BME280;8204;53.582;10.080;2022-07-06T07:07:46;101946.25;;;17.53;100.00
16194;BME280;8204;53.582;10.080;2022-07-06T07:10:12;101957.31;;;17.64;100.00
16194;BME280;8204;53.582;10.080;2022-07-06T07:12:43;101968.56;;;17.66;100.00
16194;BME280;8204;53.582;10.080;2022-07-06T07:15:10;101969.91;;;17.62;100.00
16194;BME280;8204;53.582;10.080;2022-07-06T07:17:36;101971.25;;;17.58;100.00
16194;BME280;8204;53.582;10.080;2022-07-06T07:20:05;101970.28;;;17.59;100.00
16194;BME280;8204;53.582;10.080;2022-07-06T07:22:32;101972.41;;;17.63;100.00
16194;BME280;8204;53.582;10.080;2022-07-06T07:24:59;101979.81;;;17.68;100.00
16194;BME280;8204;53.582;10.080;2022-07-06T07:27:25;101976.13;;;17.77;100.00
16194;BME280;8204;53.582;10.080;2022-07-06T07:29:52;101978.38;;;17.88;100.00
16194;BME280;8204;53.582;10.080;2022-07-06T07:32:19;101979.97;;;17.97;100.00
16194;BME280;8204;53.582;10.080;2022-07-06T07:34:45;101978.50;;;17.94;100.00
16194;BME280;8204;53.582;10.080;2022-07-06T07:37:13;101987.75;;;17.98;100.00
16194;BME280;8204;53.582;10.080;2022-07-06T07:39:40;102004.38;;;17.92;100.00
16194;BME280;8204;53.582;10.080;2022-07-06T07:42:07;101999.44;;;17.89;100.00
16194;BME280;8204;53.582;10.080;2022-07-06T07:44:34;101997.59;;;17.90;100.00
16194;BME280;8204;53.582;10.080;2022-07-06T07:47:00;102000.91;;;17.92;100.00
16194;BME280;8204;53.582;10.080;2022-07-06T07:49:27;101992.63;;;17.87;100.00
16194;BME280;8204;53.582;10.080;2022-07-06T07:51:53;101996.88;;;17.96;100.00
16194;BME280;8204;53.582;10.080;2022-07-06T07:54:21;102003.19;;;17.95;100.00
16194;BME280;8204;53.582;10.080;2022-07-06T07:56:47;102002.19;;;17.96;100.00
16194;BME280;8204;53.582;10.080;2022-07-06T07:59:14;102006.25;;;17.84;100.00
16194;BME280;8204;53.582;10.080;2022-07-06T12:12:09;102011.44;;;19.96;100.00
16194;BME280;8204;53.582;10.080;2022-07-06T12:14:38;101993.69;;;20.03;100.00
16194;BME280;8204;53.582;10.080;2022-07-06T12:17:06;102001.06;;;20.43;100.00
16194;BME280;8204;53.582;10.080;2022-07-06T12:19:33;101998.97;;;20.87;100.00
16194;BME280;8204;53.582;10.080;2022-07-06T12:22:00;101980.47;;;21.13;100.00
16194;BME280;8204;53.582;10.080;2022-07-06T12:24:29;101992.75;;;21.41;100.00
16194;BME280;8204;53.582;10.080;2022-07-06T12:26:57;101990.00;;;21.68;100.00
16194;BME280;8204;53.582;10.080;2022-07-06T12:29:25;101983.91;;;22.00;100.00
16194;BME280;8204;53.582;10.080;2022-07-06T12:31:52;101982.94;;;22.27;100.00
16194;BME280;8204;53.582;10.080;2022-07-06T12:34:20;101981.91;;;22.21;100.00
16194;BME280;8204;53.582;10.080;2022-07-06T12:36:48;101972.44;;;22.19;100.00
16194;BME280;8204;53.582;10.080;2022-07-06T12:39:16;101977.00;;;22.38;98.90
16194;BME280;8204;53.582;10.080;2022-07-06T12:41:45;101980.28;;;22.33;97.44
16194;BME280;8204;53.582;10.080;2022-07-06T12:44:12;101986.81;;;21.99;97.34
16194;BME280;8204;53.582;10.080;2022-07-06T12:46:40;101983.22;;;21.66;99.28
16194;BME280;8204;53.582;10.080;2022-07-06T12:49:12;101975.91;;;21.40;100.00
16194;BME280;8204;53.582;10.080;2022-07-06T12:51:53;101982.81;;;21.22;100.00
16194;BME280;8204;53.582;10.080;2022-07-06T12:54:21;101988.25;;;21.08;100.00
16194;BME280;8204;53.582;10.080;2022-07-06T12:57:06;101989.75;;;21.17;100.00
16194;BME280;8204;53.582;10.080;2022-07-06T12:59:35;101979.97;;;21.70;100.00
16194;BME280;8204;53.582;10.080;2022-07-06T13:02:04;101984.53;;;22.08;100.00
16194;BME280;8204;53.582;10.080;2022-07-06T13:04:31;101972.81;;;21.97;100.00
16194;BME280;8204;53.582;10.080;2022-07-06T13:06:59;101978.78;;;21.99;100.00
16194;BME280;8204;53.582;10.080;2022-07-06T13:09:26;101976.13;;;22.05;100.00
16194;BME280;8204;53.582;10.080;2022-07-06T13:11:53;101977.59;;;22.14;100.00
16194;BME280;8204;53.582;10.080;2022-07-06T13:14:19;101979.03;;;22.23;100.00
16194;BME280;8204;53.582;10.080;2022-07-06T13:16:47;101981.13;;;22.47;100.00
16194;BME280;8204;53.582;10.080;2022-07-06T13:19:15;101964.22;;;22.98;100.00
16194;BME280;8204;53.582;10.080;2022-07-06T13:21:41;101962.25;;;23.37;99.59
16194;BME280;8204;53.582;10.080;2022-07-06T13:24:10;101962.88;;;23.39;96.07
16194;BME280;8204;53.582;10.080;2022-07-06T13:26:36;101952.31;;;23.51;96.58
16194;BME280;8204;53.582;10.080;2022-07-06T13:29:03;101968.81;;;23.41;95.74
16194;BME280;8204;53.582;10.080;2022-07-06T13:31:30;101974.88;;;23.24;95.78
16194;BME280;8204;53.582;10.080;2022-07-06T13:33:56;101963.22;;;23.55;94.52
16194;BME280;8204;53.582;10.080;2022-07-06T13:36:24;101955.50;;;23.78;94.75
16194;BME280;8204;53.582;10.080;2022-07-06T13:38:51;101944.84;;;24.27;93.38
16194;BME280;8204;53.582;10.080;2022-07-06T13:41:17;101955.97;;;24.30;94.70
16194;BME280;8204;53.582;10.080;2022-07-06T13:43:43;101954.16;;;24.25;92.94
16194;BME280;8204;53.582;10.080;2022-07-06T13:46:10;101952.19;;;24.62;89.30
16194;BME280;8204;53.582;10.080;2022-07-06T13:48:37;101950.56;;;24.61;88.47
16194;BME280;8204;53.582;10.080;2022-07-06T13:51:03;101951.03;;;24.94;87.58
16194;BME280;8204;53.582;10.080;2022-07-06T13:53:31;101941.50;;;24.98;87.35
16194;BME280;8204;53.582;10.080;2022-07-06T13:55:57;101943.00;;;24.94;86.61
16194;BME280;8204;53.582;10.080;2022-07-06T13:58:24;101937.78;;;25.17;87.41
16194;BME280;8204;53.582;10.080;2022-07-06T14:00:50;101921.66;;;25.53;84.89
16194;BME280;8204;53.582;10.080;2022-07-06T14:03:17;101929.28;;;25.56;84.23
16194;BME280;8204;53.582;10.080;2022-07-06T14:05:43;101925.41;;;25.81;82.00
16194;BME280;8204;53.582;10.080;2022-07-06T14:08:10;101914.78;;;25.75;80.86
16194;BME280;8204;53.582;10.080;2022-07-06T14:10:39;101923.91;;;25.85;81.75
16194;BME280;8204;53.582;10.080;2022-07-06T14:13:05;101914.69;;;25.92;80.73
16194;BME280;8204;53.582;10.080;2022-07-06T14:15:32;101922.69;;;26.22;79.24
16194;BME280;8204;53.582;10.080;2022-07-06T14:17:59;101927.75;;;26.41;78.53
16194;BME280;8204;53.582;10.080;2022-07-06T14:20:26;101919.69;;;26.41;77.94
16194;BME280;8204;53.582;10.080;2022-07-06T14:22:52;101922.38;;;26.75;77.75
16194;BME280;8204;53.582;10.080;2022-07-06T14:25:19;101915.91;;;26.88;76.46
16194;BME280;8204;53.582;10.080;2022-07-06T14:27:46;101915.84;;;26.60;76.58
16194;BME280;8204;53.582;10.080;2022-07-06T14:30:13;101926.38;;;26.61;76.73
16194;BME280;8204;53.582;10.080;2022-07-06T14:32:39;101921.81;;;26.39;77.55
16194;BME280;8204;53.582;10.080;2022-07-06T14:35:09;101924.44;;;26.28;76.03
16194;BME280;8204;53.582;10.080;2022-07-06T14:37:35;101914.56;;;25.99;76.72
16194;BME280;8204;53.582;10.080;2022-07-06T14:40:02;101916.97;;;25.78;75.94
16194;BME280;8204;53.582;10.080;2022-07-06T14:42:29;101924.38;;;25.35;76.07
16194;BME280;8204;53.582;10.080;2022-07-06T14:44:57;101918.66;;;25.31;77.25
16194;BME280;8204;53.582;10.080;2022-07-06T14:47:23;101921.69;;;25.17;77.46
16194;BME280;8204;53.582;10.080;2022-07-06T14:49:49;101929.88;;;25.04;78.04
16194;BME280;8204;53.582;10.080;2022-07-06T14:52:17;101921.69;;;25.17;78.39
16194;BME280;8204;53.582;10.080;2022-07-06T14:54:44;101924.72;;;25.09;77.41
16194;BME280;8204;53.582;10.080;2022-07-06T14:57:10;101913.44;;;25.18;77.14
16194;BME280;8204;53.582;10.080;2022-07-06T14:59:37;101937.53;;;25.01;76.40
16194;BME280;8204;53.582;10.080;2022-07-06T15:02:05;101930.66;;;25.11;77.44
16194;BME280;8204;53.582;10.080;2022-07-06T15:04:31;101923.06;;;25.08;76.05
16194;BME280;8204;53.582;10.080;2022-07-06T15:06:58;101914.75;;;25.27;76.62
16194;BME280;8204;53.582;10.080;2022-07-06T15:09:25;101925.31;;;25.58;76.07
16194;BME280;8204;53.582;10.080;2022-07-06T15:11:53;101919.09;;;25.58;76.70
16194;BME280;8204;53.582;10.080;2022-07-06T15:14:20;101910.28;;;26.09;76.46
16194;BME280;8204;53.582;10.080;2022-07-06T15:16:46;101912.94;;;25.86;75.96
16194;BME280;8204;53.582;10.080;2022-07-06T15:19:15;101920.44;;;25.67;77.44
16194;BME280;8204;53.582;10.080;2022-07-06T15:21:41;101902.03;;;25.23;77.46
16194;BME280;8204;53.582;10.080;2022-07-06T15:24:08;101908.28;;;25.17;79.50
16194;BME280;8204;53.582;10.080;2022-07-06T15:26:34;101916.19;;;25.12;80.42
16194;BME280;8204;53.582;10.080;2022-07-06T15:29:01;101916.75;;;24.78;79.98
16194;BME280;8204;53.582;10.080;2022-07-06T15:31:28;101908.78;;;24.54;81.25
16194;BME280;8204;53.582;10.080;2022-07-06T15:33:56;101909.66;;;24.48;82.98
16194;BME280;8204;53.582;10.080;2022-07-06T15:36:24;101907.13;;;24.28;82.38
16194;BME280;8204;53.582;10.080;2022-07-06T15:38:51;101914.97;;;23.99;81.58
16194;BME280;8204;53.582;10.080;2022-07-06T15:41:18;101903.03;;;23.64;82.36
16194;BME280;8204;53.582;10.080;2022-07-06T15:43:44;101903.53;;;23.49;83.35
16194;BME280;8204;53.582;10.080;2022-07-06T15:46:11;101912.69;;;23.28;83.93
16194;BME280;8204;53.582;10.080;2022-07-06T15:48:38;101903.47;;;23.24;84.48
16194;BME280;8204;53.582;10.080;2022-07-06T15:51:04;101908.22;;;23.16;85.69
16194;BME280;8204;53.582;10.080;2022-07-06T15:53:32;101908.47;;;23.01;86.64
16194;BME280;8204;53.582;10.080;2022-07-06T15:56:02;101919.97;;;22.95;87.06
16194;BME280;8204;53.582;10.080;2022-07-06T15:58:29;101909.72;;;22.92;87.69
16194;BME280;8204;53.582;10.080;2022-07-06T16:00:55;101897.13;;;23.12;89.23
16194;BME280;8204;53.582;10.080;2022-07-06T16:03:24;101892.28;;;23.71;89.61
16194;BME280;8204;53.582;10.080;2022-07-06T16:05:50;101889.03;;;24.48;86.80
16194;BME280;8204;53.582;10.080;2022-07-06T16:08:17;101887.47;;;24.95;84.25
16194;BME280;8204;53.582;10.080;2022-07-06T16:10:44;101870.72;;;25.46;82.42
16194;BME280;8204;53.582;10.080;2022-07-06T16:13:11;101865.28;;;26.05;79.84
16194;BME280;8204;53.582;10.080;2022-07-06T16:15:38;101871.72;;;26.84;77.35
16194;BME280;8204;53.582;10.080;2022-07-06T16:18:05;101852.75;;;27.02;74.47
16194;BME280;8204;53.582;10.080;2022-07-06T16:20:31;101842.47;;;27.27;73.62
16194;BME280;8204;53.582;10.080;2022-07-06T16:22:58;101851.16;;;26.78;75.31
16194;BME280;8204;53.582;10.080;2022-07-06T16:25:24;101850.38;;;26.43;75.85
16194;BME280;8204;53.582;10.080;2022-07-06T16:27:52;101849.31;;;26.44;76.13
16194;BME280;8204;53.582;10.080;2022-07-06T16:30:19;101845.69;;;26.16;77.28
16194;BME280;8204;53.582;10.080;2022-07-06T16:32:45;101839.25;;;26.17;78.64
16194;BME280;8204;53.582;10.080;2022-07-06T16:35:12;101827.81;;;26.44;77.78
16194;BME280;8204;53.582;10.080;2022-07-06T16:37:38;101832.72;;;26.98;76.75
16194;BME280;8204;53.582;10.080;2022-07-06T16:40:05;101832.59;;;27.04;75.15
16194;BME280;8204;53.582;10.080;2022-07-06T16:42:32;101821.28;;;27.02;74.01
16194;BME280;8204;53.582;10.080;2022-07-06T16:45:00;101819.78;;;27.23;74.13
16194;BME280;8204;53.582;10.080;2022-07-06T16:47:28;101813.81;;;27.21;74.04
16194;BME280;8204;53.582;10.080;2022-07-06T16:49:55;101804.69;;;27.22;73.41
16194;BME280;8204;53.582;10.080;2022-07-06T16:52:22;101810.78;;;27.17;73.31